Time;durP1;ratioP1;P1;durP2;ratioP2;P2;SDS_P1;SDS_P2;PMS_P1;PMS_P2;Temp;Humidity;BMP_temperature;BMP_pressure;BME280_temperature;BME280_humidity;BME280_pressure;Samples;Min_cycle;Max_cycle;Signal;HPM_P1;HPM_P2
2023/09/26 00:00:31;;;;;;;2.95;1.45;;;;;;;12.10;82.38;102341.19;10453595;28;20544;-81
2023/09/26 00:05:34;;;;;;;4.68;1.70;;;;;;;12.08;81.54;102338.69;10482398;28;20070;-83
2023/09/26 00:10:36;;;;;;;3.22;1.48;;;;;;;12.05;80.93;102341.97;10485946;28;20052;-82
2023/09/26 00:15:39;;;;;;;4.20;1.63;;;;;;;12.03;81.61;102347.72;10487000;28;20335;-82
2023/09/26 00:20:41;;;;;;;4.85;1.55;;;;;;;12.13;81.00;102355.28;10441956;28;20044;-82
2023/09/26 00:25:44;;;;;;;3.92;1.67;;;;;;;12.14;80.79;102361.63;10467920;28;20045;-82
2023/09/26 00:30:47;;;;;;;4.43;1.63;;;;;;;12.04;81.03;102345.78;10445428;28;20049;-82
2023/09/26 00:35:51;;;;;;;3.05;1.42;;;;;;;11.97;81.51;102347.84;10443799;28;20048;-83
2023/09/26 00:40:54;;;;;;;4.40;1.63;;;;;;;11.99;81.00;102345.72;10442852;28;20570;-83
2023/09/26 00:45:57;;;;;;;5.65;1.60;;;;;;;11.92;81.31;102343.09;10429052;28;20037;-83
2023/09/26 00:50:59;;;;;;;6.05;1.92;;;;;;;11.95;82.01;102339.03;10447274;28;20045;-82
2023/09/26 00:56:02;;;;;;;4.53;1.60;;;;;;;11.99;81.11;102342.97;10484744;28;20499;-81
2023/09/26 01:01:05;;;;;;;7.00;1.95;;;;;;;11.94;80.63;102340.09;10479100;28;20041;-82
2023/09/26 01:06:09;;;;;;;4.07;1.75;;;;;;;11.88;80.67;102341.13;10484537;28;20041;-83
2023/09/26 01:11:12;;;;;;;3.72;1.55;;;;;;;11.98;80.70;102344.88;10463581;28;20045;-83
2023/09/26 01:16:18;;;;;;;4.47;1.65;;;;;;;11.86;80.52;102351.53;10443689;28;20115;-82
2023/09/26 01:21:21;;;;;;;4.57;1.90;;;;;;;11.93;80.94;102346.69;10450201;28;20041;-82
2023/09/26 01:26:24;;;;;;;4.07;1.85;;;;;;;11.94;80.94;102354.69;10449244;28;20585;-82
2023/09/26 01:31:27;;;;;;;6.25;2.10;;;;;;;12.06;79.69;102349.13;10448518;28;20044;-83
2023/09/26 01:36:32;;;;;;;6.13;1.88;;;;;;;12.07;79.28;102351.63;10469437;28;20500;-82
2023/09/26 01:41:35;;;;;;;6.65;1.98;;;;;;;11.96;80.06;102348.94;10491138;28;20037;-83
2023/09/26 01:46:37;;;;;;;5.65;1.90;;;;;;;12.09;79.44;102345.88;10489662;28;20420;-83
2023/09/26 01:51:39;;;;;;;4.25;2.10;;;;;;;12.26;78.73;102334.88;10492354;28;20516;-82
2023/09/26 01:56:41;;;;;;;3.83;1.70;;;;;;;12.31;78.32;102337.69;10489541;28;20052;-82
2023/09/26 02:01:43;;;;;;;3.75;1.80;;;;;;;12.29;78.51;102329.69;10491567;28;20040;-81
2023/09/26 02:06:46;;;;;;;4.60;1.75;;;;;;;12.27;78.00;102331.84;10448672;28;20049;-82
2023/09/26 02:11:49;;;;;;;6.53;2.45;;;;;;;12.34;78.36;102332.53;10452806;28;20525;-81
2023/09/26 02:16:51;;;;;;;7.80;2.45;;;;;;;12.33;77.75;102319.03;10489992;28;20052;-81
2023/09/26 02:21:53;;;;;;;4.30;2.10;;;;;;;12.23;77.92;102324.38;10491616;28;20044;-81
2023/09/26 02:26:56;;;;;;;2.78;1.77;;;;;;;12.15;78.29;102324.75;10466153;28;20434;-82
2023/09/26 02:31:59;;;;;;;4.50;2.00;;;;;;;12.18;78.69;102310.53;10449731;28;20425;-82
2023/09/26 02:37:01;;;;;;;4.38;1.88;;;;;;;12.10;78.47;102322.78;10456432;28;20503;-83
2023/09/26 02:42:03;;;;;;;3.88;1.92;;;;;;;12.07;78.15;102309.53;10490966;28;20045;-83
2023/09/26 02:47:06;;;;;;;3.10;1.50;;;;;;;12.07;78.79;102304.84;10437665;28;20041;-82
2023/09/26 02:52:08;;;;;;;4.20;1.80;;;;;;;11.91;79.22;102285.59;10455288;28;20048;-83
2023/09/26 02:57:10;;;;;;;5.03;1.80;;;;;;;11.89;79.63;102290.50;10487871;28;20057;-82
2023/09/26 03:02:13;;;;;;;7.30;1.80;;;;;;;11.76;79.91;102284.22;10447216;28;20500;-82
2023/09/26 03:07:23;;;;;;;4.05;2.25;;;;;;;11.74;79.86;102280.88;10441698;28;20495;-82
2023/09/26 03:12:25;;;;;;;2.33;1.42;;;;;;;11.76;79.79;102280.63;10444130;28;20038;-82
2023/09/26 03:17:28;;;;;;;3.80;1.67;;;;;;;11.88;78.94;102273.19;10484392;28;20045;-83
2023/09/26 03:22:30;;;;;;;5.10;1.90;;;;;;;11.81;79.66;102274.44;10489497;28;20044;-82
2023/09/26 03:27:32;;;;;;;5.07;1.88;;;;;;;11.81;79.41;102271.69;10455605;28;20052;-82
2023/09/26 03:32:35;;;;;;;4.00;1.98;;;;;;;11.90;79.05;102272.91;10452870;28;20044;-83
2023/09/26 03:37:37;;;;;;;4.72;2.17;;;;;;;11.88;79.04;102269.59;10487381;28;20055;-82
2023/09/26 03:42:40;;;;;;;4.22;1.88;;;;;;;11.90;78.60;102283.94;10429862;28;20052;-82
2023/09/26 03:47:43;;;;;;;4.72;1.70;;;;;;;11.89;77.83;102282.25;10465021;28;20384;-87
2023/09/26 03:52:45;;;;;;;4.45;1.80;;;;;;;11.95;77.51;102281.25;10412197;28;20049;-82
2023/09/26 03:57:47;;;;;;;4.10;1.73;;;;;;;12.03;76.60;102275.34;10449326;28;20044;-82
2023/09/26 04:02:56;;;;;;;5.30;2.00;;;;;;;12.07;77.52;102282.00;10460213;28;20037;-83
2023/09/26 04:07:58;;;;;;;3.78;2.05;;;;;;;12.13;76.84;102278.25;10411016;28;20037;-82
2023/09/26 04:13:01;;;;;;;3.95;1.65;;;;;;;12.18;76.44;102272.84;10450589;28;20051;-83
2023/09/26 04:18:05;;;;;;;5.80;1.85;;;;;;;12.23;76.97;102281.16;10458354;28;20041;-83
2023/09/26 04:23:07;;;;;;;4.20;1.83;;;;;;;12.23;76.64;102275.66;10462542;28;20139;-80
2023/09/26 04:28:09;;;;;;;4.70;2.22;;;;;;;12.37;76.71;102282.47;10449591;28;20050;-84
2023/09/26 04:33:12;;;;;;;5.30;2.20;;;;;;;12.41;76.64;102268.19;10411586;28;20037;-84
2023/09/26 04:38:14;;;;;;;6.07;2.30;;;;;;;12.49;76.00;102268.59;10416528;28;20033;-84
2023/09/26 04:43:17;;;;;;;5.75;2.40;;;;;;;12.56;76.28;102276.69;10427408;28;20041;-84
2023/09/26 04:48:19;;;;;;;3.72;1.75;;;;;;;12.52;75.60;102281.88;10444696;28;20045;-85
2023/09/26 04:53:22;;;;;;;6.10;1.70;;;;;;;12.59;74.78;102281.66;10435208;28;20428;-84
2023/09/26 04:58:24;;;;;;;3.47;1.60;;;;;;;12.61;75.39;102274.81;10393208;28;20519;-82
2023/09/26 05:03:27;;;;;;;3.92;1.58;;;;;;;12.70;75.09;102274.38;10436674;28;20033;-84
2023/09/26 05:08:32;;;;;;;5.00;2.30;;;;;;;12.60;74.98;102278.66;10426354;28;20045;-84
2023/09/26 05:13:34;;;;;;;5.90;2.20;;;;;;;12.69;74.99;102279.06;10410495;28;20044;-84
2023/09/26 05:18:36;;;;;;;3.55;1.90;;;;;;;12.62;74.99;102283.91;10426901;28;20500;-84
2023/09/26 05:23:39;;;;;;;3.33;1.85;;;;;;;12.61;74.61;102285.00;10433881;28;20034;-84
2023/09/26 05:28:41;;;;;;;4.25;2.10;;;;;;;12.67;73.89;102279.31;10419508;28;20046;-84
2023/09/26 05:33:44;;;;;;;4.88;2.15;;;;;;;12.97;72.98;102286.28;10428177;28;20132;-84
2023/09/26 05:38:46;;;;;;;4.03;2.15;;;;;;;13.07;72.29;102277.31;10445975;28;20041;-84
2023/09/26 05:43:48;;;;;;;4.10;2.45;;;;;;;13.02;72.71;102280.88;10430522;28;20551;-83
2023/09/26 05:48:50;;;;;;;5.55;2.38;;;;;;;13.12;72.19;102278.22;10451419;28;20417;-84
2023/09/26 05:53:53;;;;;;;3.10;2.03;;;;;;;13.09;71.57;102281.47;10452534;28;20053;-83
2023/09/26 05:58:55;;;;;;;4.28;1.90;;;;;;;13.14;71.63;102284.28;10458813;28;20042;-84
2023/09/26 06:03:57;;;;;;;5.13;1.67;;;;;;;13.10;71.39;102283.16;10459092;28;20044;-83
2023/09/26 06:09:12;;;;;;;6.22;1.88;;;;;;;13.05;71.38;102296.03;10422677;28;20041;-84
2023/09/26 06:14:14;;;;;;;2.95;1.90;;;;;;;13.20;71.61;102275.03;10470665;28;20041;-83
2023/09/26 06:19:16;;;;;;;2.70;1.73;;;;;;;12.97;71.47;102281.63;10450553;28;20530;-84
2023/09/26 06:24:19;;;;;;;3.45;1.90;;;;;;;12.95;72.43;102277.44;10449999;28;20041;-84
2023/09/26 06:29:21;;;;;;;3.92;1.55;;;;;;;13.11;72.28;102276.53;10390880;28;20049;-84
2023/09/26 06:34:24;;;;;;;2.65;1.52;;;;;;;12.95;71.45;102278.28;10411985;28;20044;-83
2023/09/26 06:39:27;;;;;;;3.03;1.95;;;;;;;12.97;72.18;102278.03;10440173;28;20037;-84
2023/09/26 06:44:29;;;;;;;3.67;1.70;;;;;;;12.90;72.44;102283.75;10449803;28;20535;-83
2023/09/26 06:49:33;;;;;;;4.20;2.00;;;;;;;13.00;71.89;102280.25;10404933;28;20417;-84
2023/09/26 06:54:36;;;;;;;3.85;2.03;;;;;;;13.09;71.65;102288.91;10428079;28;20047;-83
2023/09/26 06:59:38;;;;;;;3.83;1.67;;;;;;;13.09;71.13;102292.50;10495793;28;20049;-84
2023/09/26 07:04:41;;;;;;;4.43;1.88;;;;;;;13.37;70.94;102287.91;10460160;28;20048;-84
2023/09/26 07:09:43;;;;;;;3.03;1.95;;;;;;;13.58;69.82;102287.84;10469797;28;20041;-84
2023/09/26 07:14:46;;;;;;;7.13;2.00;;;;;;;13.67;69.20;102285.41;10473946;28;20041;-83
2023/09/26 07:19:51;;;;;;;4.03;1.98;;;;;;;14.10;68.82;102284.41;10457794;28;20512;-84
2023/09/26 07:24:53;;;;;;;3.47;1.73;;;;;;;13.69;68.99;102294.25;10434394;28;20041;-85
2023/09/26 07:29:56;;;;;;;4.13;2.15;;;;;;;13.99;68.67;102296.47;10474085;28;20044;-85
2023/09/26 07:34:58;;;;;;;5.45;2.60;;;;;;;13.96;68.76;102305.28;10465243;28;20037;-84
2023/09/26 07:40:04;;;;;;;3.13;1.83;;;;;;;13.88;68.59;102291.94;10429914;28;20045;-82
2023/09/26 07:45:07;;;;;;;3.65;1.88;;;;;;;14.06;68.12;102286.06;10429997;28;20124;-86
2023/09/26 07:50:10;;;;;;;4.95;1.88;;;;;;;14.27;67.85;102286.19;10478121;28;20044;-84
2023/09/26 07:55:13;;;;;;;4.53;2.03;;;;;;;14.41;66.85;102288.22;10488268;28;20060;-85
2023/09/26 08:00:16;;;;;;;4.47;1.92;;;;;;;14.62;66.82;102293.91;10467166;28;20029;-86
2023/09/26 08:05:19;;;;;;;3.90;2.00;;;;;;;14.93;65.66;102284.66;10431143;28;20047;-85
2023/09/26 08:10:21;;;;;;;3.53;1.80;;;;;;;14.69;66.23;102284.25;10442455;28;20505;-86
2023/09/26 08:15:24;;;;;;;4.47;1.88;;;;;;;14.88;65.79;102292.06;10446137;28;20518;-85
2023/09/26 08:20:26;;;;;;;4.45;2.35;;;;;;;15.54;63.85;102295.06;10466884;28;20037;-86
2023/09/26 08:25:28;;;;;;;4.68;2.33;;;;;;;15.30;63.38;102284.50;10412464;28;20048;-86
2023/09/26 08:30:34;;;;;;;4.70;2.20;;;;;;;15.03;64.19;102284.69;10445672;28;20037;-88
2023/09/26 08:35:36;;;;;;;4.32;2.17;;;;;;;14.95;63.81;102289.91;10428229;28;20046;-87
2023/09/26 08:40:38;;;;;;;3.97;1.90;;;;;;;14.73;64.14;102293.66;10445523;28;20034;-86
2023/09/26 08:45:41;;;;;;;4.05;2.38;;;;;;;15.18;63.07;102292.19;10466761;28;20037;-86
2023/09/26 08:50:43;;;;;;;4.63;2.10;;;;;;;15.03;63.39;102275.56;10458784;28;20053;-86
2023/09/26 08:55:49;;;;;;;4.40;2.10;;;;;;;15.06;63.38;102297.97;10482264;28;20060;-86
2023/09/26 09:00:52;;;;;;;3.70;1.92;;;;;;;15.25;62.51;102301.06;10490748;28;20047;-91
2023/09/26 09:05:54;;;;;;;4.38;2.25;;;;;;;15.52;63.08;102289.78;10433395;28;20041;-86
2023/09/26 09:10:57;;;;;;;4.07;2.15;;;;;;;15.52;61.84;102287.03;10442606;28;20050;-85
2023/09/26 09:16:18;;;;;;;2.95;1.60;;;;;;;15.39;61.79;102288.38;10443860;28;20041;-86
2023/09/26 09:21:22;;;;;;;2.95;1.70;;;;;;;15.42;60.22;102295.28;10429290;28;20041;-88
2023/09/26 09:26:28;;;;;;;4.65;2.38;;;;;;;15.42;60.47;102288.94;10485242;28;20063;-87
2023/09/26 09:31:30;;;;;;;4.68;1.83;;;;;;;15.39;60.37;102302.22;10501293;28;20055;-87
2023/09/26 09:36:33;;;;;;;3.22;2.10;;;;;;;15.56;60.34;102288.13;10482415;28;20037;-91
2023/09/26 09:41:41;;;;;;;5.13;2.38;;;;;;;15.69;60.47;102295.09;10447072;28;20041;-89
2023/09/26 09:46:43;;;;;;;4.45;2.22;;;;;;;15.82;59.85;102289.03;10443087;28;20072;-89
2023/09/26 09:51:47;;;;;;;4.45;1.95;;;;;;;15.77;59.52;102297.31;10419831;28;20044;-91
2023/09/26 09:56:52;;;;;;;5.15;2.17;;;;;;;15.89;59.51;102299.81;10425701;28;20057;-88
2023/09/26 10:01:55;;;;;;;3.17;2.00;;;;;;;15.91;59.62;102300.38;10431253;28;20037;-87
2023/09/26 10:06:59;;;;;;;5.80;1.85;;;;;;;15.92;59.99;102289.03;10417913;28;20049;-88
2023/09/26 10:12:01;;;;;;;5.63;2.33;;;;;;;15.77;60.44;102286.25;10451139;28;20092;-88
2023/09/26 10:17:06;;;;;;;5.72;2.00;;;;;;;16.09;59.55;102291.50;10400830;28;20041;-88
2023/09/26 10:22:19;;;;;;;4.10;1.90;;;;;;;16.19;59.32;102285.97;10438397;28;20040;-87
2023/09/26 10:27:30;;;;;;;4.40;1.80;;;;;;;16.48;58.92;102285.34;10446022;28;20048;-87
2023/09/26 10:32:38;;;;;;;3.60;2.08;;;;;;;16.29;58.88;102282.34;10451541;28;20048;-88
2023/09/26 10:37:49;;;;;;;3.97;2.03;;;;;;;16.39;58.68;102276.78;10433598;28;20067;-86
2023/09/26 10:42:51;;;;;;;4.00;1.88;;;;;;;15.84;58.78;102286.81;10418013;28;20132;-89
2023/09/26 10:47:54;;;;;;;3.33;1.65;;;;;;;15.80;60.36;102277.41;10418679;28;20528;-89
2023/09/26 10:52:56;;;;;;;4.60;1.60;;;;;;;15.98;60.28;102271.31;10416041;28;20053;-90
2023/09/26 10:57:58;;;;;;;3.55;1.25;;;;;;;15.93;60.28;102268.53;10416303;28;20048;-89
2023/09/26 11:03:02;;;;;;;2.10;1.17;;;;;;;16.01;59.37;102258.03;10425318;28;20055;-87
2023/09/26 11:08:05;;;;;;;3.20;1.50;;;;;;;16.23;59.03;102255.75;10463743;28;20048;-87
2023/09/26 11:13:07;;;;;;;2.42;1.40;;;;;;;16.32;59.47;102258.81;10472848;28;20037;-88
2023/09/26 11:18:12;;;;;;;3.65;1.60;;;;;;;16.62;59.08;102257.88;10456952;28;20048;-88
2023/09/26 11:23:38;;;;;;;2.88;1.48;;;;;;;16.40;59.07;102253.50;10469081;28;20058;-88
2023/09/26 11:28:40;;;;;;;2.25;2.00;;;;;;;16.63;58.76;102270.63;10452988;28;20061;-88
2023/09/26 11:33:43;;;;;;;1.80;1.45;;;;;;;16.63;58.52;102265.06;10414631;28;20042;-87
2023/09/26 11:38:49;;;;;;;4.45;1.75;;;;;;;16.71;58.60;102261.78;10430560;28;20038;-88
2023/09/26 11:43:52;;;;;;;3.30;1.35;;;;;;;16.68;58.85;102265.94;10404892;28;20699;-86
2023/09/26 11:48:55;;;;;;;3.83;1.73;;;;;;;16.45;58.93;102264.56;10479001;28;20040;-88
2023/09/26 11:53:57;;;;;;;1.92;1.40;;;;;;;16.25;59.78;102264.63;10431933;28;20067;-86
2023/09/26 11:59:05;;;;;;;1.67;1.02;;;;;;;16.04;60.66;102255.53;10453200;28;20503;-87
2023/09/26 12:04:11;;;;;;;3.53;1.70;;;;;;;16.20;60.19;102253.56;10427654;28;20041;-87
2023/09/26 12:09:21;;;;;;;2.55;1.27;;;;;;;16.14;60.73;102261.06;10502537;28;20112;-87
2023/09/26 12:14:24;;;;;;;2.33;1.25;;;;;;;16.19;60.86;102260.22;10493858;28;20053;-87
2023/09/26 12:19:27;;;;;;;2.45;1.65;;;;;;;16.16;61.40;102249.69;10490020;28;20045;-87
2023/09/26 12:24:29;;;;;;;2.28;1.70;;;;;;;16.33;61.10;102255.75;10486230;28;20507;-87
2023/09/26 12:29:32;;;;;;;2.60;1.50;;;;;;;16.12;61.33;102262.41;10486193;28;20554;-87
2023/09/26 12:34:34;;;;;;;3.13;1.55;;;;;;;16.20;61.95;102254.38;10453602;28;20492;-87
2023/09/26 12:39:36;;;;;;;2.55;1.58;;;;;;;16.39;61.58;102257.41;10480947;28;20037;-87
2023/09/26 12:44:40;;;;;;;2.75;1.55;;;;;;;16.47;61.04;102258.75;10438507;28;20048;-87
2023/09/26 12:49:51;;;;;;;4.85;1.63;;;;;;;16.39;61.50;102259.34;10486031;28;20048;-85
2023/09/26 12:54:53;;;;;;;3.58;1.55;;;;;;;16.27;62.05;102256.84;10484279;28;20049;-86
2023/09/26 12:59:56;;;;;;;3.08;1.70;;;;;;;16.53;62.33;102257.63;10462251;28;20673;-86
2023/09/26 13:04:58;;;;;;;3.00;1.75;;;;;;;16.62;61.59;102247.63;10453892;28;20072;-87
2023/09/26 13:10:01;;;;;;;2.30;1.70;;;;;;;16.74;61.43;102250.09;10409273;28;20065;-88
2023/09/26 13:15:03;;;;;;;3.28;1.70;;;;;;;16.58;61.72;102239.03;10428583;28;20416;-87
2023/09/26 13:20:10;;;;;;;3.85;1.83;;;;;;;16.34;61.96;102249.09;10416922;28;20052;-88
2023/09/26 13:25:13;;;;;;;2.63;1.75;;;;;;;16.17;62.55;102252.19;10414395;28;20056;-86
2023/09/26 13:30:21;;;;;;;3.85;1.70;;;;;;;16.10;63.86;102239.72;10417692;28;20067;-86
2023/09/26 13:35:25;;;;;;;4.05;1.88;;;;;;;16.25;63.29;102240.53;10481491;28;20040;-85
2023/09/26 13:40:27;;;;;;;4.85;1.83;;;;;;;16.19;63.39;102255.50;10445663;28;20047;-86
2023/09/26 13:45:29;;;;;;;3.58;1.48;;;;;;;16.27;63.64;102248.56;10464077;28;20036;-88
2023/09/26 13:50:32;;;;;;;3.05;1.48;;;;;;;16.39;62.62;102248.25;10461279;28;20058;-87
2023/09/26 13:55:34;;;;;;;4.88;1.63;;;;;;;16.51;62.87;102246.00;10459116;28;20434;-83
2023/09/26 14:00:43;;;;;;;2.45;1.50;;;;;;;16.44;62.51;102248.22;10480888;28;20033;-85
2023/09/26 14:05:45;;;;;;;4.40;1.27;;;;;;;16.20;64.42;102248.84;10437980;28;20148;-85
2023/09/26 14:10:49;;;;;;;1.92;1.35;;;;;;;16.09;64.44;102232.53;10468159;28;20036;-91
2023/09/26 14:15:56;;;;;;;2.30;1.50;;;;;;;15.96;65.39;102231.97;10465337;28;20586;-87
2023/09/26 14:20:59;;;;;;;2.78;1.67;;;;;;;15.89;65.39;102225.91;10501663;28;20043;-91
2023/09/26 14:26:01;;;;;;;3.72;1.98;;;;;;;15.72;66.37;102222.59;10456616;28;20495;-91
2023/09/26 14:45:21;;;;;;;6.70;1.95;;;;;;;15.59;67.42;102212.06;10485331;28;20073;-84
2023/09/26 14:50:51;;;;;;;3.72;1.92;;;;;;;15.52;67.78;102205.97;10516054;28;20063;-88
2023/09/26 14:58:07;;;;;;;;;;;;;;;;;;;;;
2023/09/26 15:11:15;;;;;;;;;;;;;;;;;;;;;
2023/09/26 15:17:59;;;;;;;;;;;;;;;;;;;;;
2023/09/26 15:23:42;;;;;;;4.40;1.80;;;;;;;14.88;71.68;102200.88;10282727;28;20098;-81
2023/09/26 15:28:44;;;;;;;3.78;1.70;;;;;;;14.94;72.21;102206.16;10477321;28;20037;-83
2023/09/26 15:33:47;;;;;;;5.90;1.83;;;;;;;14.88;71.67;102187.06;10481723;28;20054;-81
2023/09/26 15:38:49;;;;;;;4.38;2.22;;;;;;;14.85;71.86;102191.19;10480199;28;20093;-81
2023/09/26 15:43:55;;;;;;;4.70;2.20;;;;;;;14.73;72.28;102198.88;10490692;28;20044;-81
2023/09/26 15:48:57;;;;;;;3.17;1.63;;;;;;;14.66;72.38;102193.63;10456844;28;20133;-82
2023/09/26 15:53:59;;;;;;;5.97;1.65;;;;;;;14.67;70.93;102208.25;10467290;28;20432;-81
2023/09/26 15:59:02;;;;;;;1.77;1.58;;;;;;;14.63;71.59;102209.91;10466275;28;20033;-83
2023/09/26 16:04:04;;;;;;;2.65;1.58;;;;;;;14.63;71.34;102207.97;10433102;28;20045;-81
2023/09/26 16:09:07;;;;;;;3.03;1.70;;;;;;;14.50;71.59;102202.94;10449436;28;20554;-85
2023/09/26 16:14:09;;;;;;;3.45;2.10;;;;;;;14.43;71.28;102200.44;10455884;28;20047;-83
2023/09/26 16:19:11;;;;;;;2.45;1.88;;;;;;;14.43;70.80;102210.63;10461239;28;20039;-84
2023/09/26 16:24:13;;;;;;;3.58;1.95;;;;;;;14.44;70.05;102223.38;10451663;28;20060;-84
2023/09/26 16:29:18;;;;;;;3.28;1.90;;;;;;;14.40;70.75;102216.66;10447145;28;20045;-84
2023/09/26 16:34:21;;;;;;;3.67;2.03;;;;;;;14.35;70.30;102209.19;10478191;28;20527;-83
2023/09/26 16:39:23;;;;;;;2.92;1.70;;;;;;;14.28;70.44;102208.59;10446558;28;20037;-92
2023/09/26 16:44:25;;;;;;;2.78;1.80;;;;;;;14.26;70.53;102215.50;10485828;28;20424;-81
2023/09/26 16:49:29;;;;;;;3.85;2.10;;;;;;;14.24;70.37;102213.00;10477412;28;20063;-84
2023/09/26 16:54:31;;;;;;;6.05;2.08;;;;;;;14.25;70.59;102213.84;10464228;28;20570;-82
2023/09/26 16:59:33;;;;;;;2.75;1.83;;;;;;;14.23;70.01;102216.00;10455503;28;20049;-83
2023/09/26 17:04:35;;;;;;;2.25;2.00;;;;;;;14.24;70.08;102209.41;10463740;28;20428;-83
2023/09/26 17:09:38;;;;;;;5.97;1.63;;;;;;;14.19;70.56;102205.50;10485081;28;20056;-83
2023/09/26 17:14:45;;;;;;;1.85;1.48;;;;;;;14.13;70.98;102211.28;10494172;28;20040;-83
2023/09/26 17:19:48;;;;;;;;;;;;;;;14.09;71.21;102216.50;10499395;28;20032;-83
2023/09/26 17:24:50;;;;;;;4.00;1.77;;;;;;;14.08;70.89;102214.00;10498785;28;19943;-83
2023/09/26 17:29:53;;;;;;;3.17;2.00;;;;;;;13.99;71.39;102227.47;10483146;28;20041;-83
2023/09/26 17:34:55;;;;;;;4.07;2.22;;;;;;;13.91;71.71;102233.50;10484076;28;20450;-90
2023/09/26 17:39:57;;;;;;;3.28;1.90;;;;;;;13.85;71.92;102226.25;10491069;28;20622;-81
2023/09/26 17:45:03;;;;;;;4.53;2.00;;;;;;;13.75;72.48;102232.53;10495540;28;20037;-83
2023/09/26 17:50:07;;;;;;;3.50;2.20;;;;;;;13.69;72.47;102224.47;10495347;28;20048;-83
2023/09/26 17:55:09;;;;;;;6.40;2.35;;;;;;;13.64;72.71;102214.22;10487116;28;20045;-84
2023/09/26 18:00:12;;;;;;;6.80;2.50;;;;;;;13.56;72.81;102218.31;10518548;28;20036;-83
2023/09/26 18:05:15;;;;;;;4.80;1.85;;;;;;;13.54;73.13;102214.16;10475280;28;20032;-84
2023/09/26 18:10:18;;;;;;;4.30;1.70;;;;;;;13.51;73.35;102214.66;10466026;28;20056;-85
2023/09/26 18:15:25;;;;;;;1.73;1.35;;;;;;;13.48;73.52;102210.50;10433385;28;20037;-86
2023/09/26 18:20:29;;;;;;;4.18;2.05;;;;;;;13.44;73.89;102208.53;10451026;28;20045;-83
2023/09/26 18:25:32;;;;;;;2.85;1.77;;;;;;;13.38;73.96;102210.44;10459487;28;20412;-83
2023/09/26 18:30:35;;;;;;;3.67;1.80;;;;;;;13.28;74.57;102202.88;10469168;28;20144;-85
2023/09/26 18:35:42;;;;;;;3.58;1.95;;;;;;;13.22;74.44;102211.38;10482321;28;20032;-85
2023/09/26 18:40:45;;;;;;;4.30;2.20;;;;;;;13.14;75.06;102198.00;10466775;28;20444;-85
2023/09/26 18:45:48;;;;;;;3.88;2.15;;;;;;;13.10;75.50;102200.47;10490213;28;20060;-86
2023/09/26 18:51:01;;;;;;;3.80;2.22;;;;;;;13.06;75.82;102201.25;10467585;28;20483;-87
2023/09/26 18:56:05;;;;;;;2.75;1.85;;;;;;;13.08;75.93;102205.41;10461956;28;20549;-87
2023/09/26 19:01:08;;;;;;;5.43;1.95;;;;;;;13.04;75.66;102204.28;10478574;28;20403;-85
2023/09/26 19:06:18;;;;;;;3.58;1.80;;;;;;;13.02;75.78;102216.66;10470328;28;20044;-85
2023/09/26 19:11:21;;;;;;;7.00;2.60;;;;;;;12.99;75.56;102206.94;10469593;28;20037;-86
2023/09/26 19:16:26;;;;;;;5.82;2.05;;;;;;;12.97;75.71;102207.22;10475499;28;20069;-85
2023/09/26 19:21:28;;;;;;;3.88;2.05;;;;;;;12.98;75.65;102211.63;10461310;28;20037;-86
2023/09/26 19:26:32;;;;;;;4.97;2.38;;;;;;;13.01;75.24;102199.25;10503887;28;20047;-88
2023/09/26 19:31:39;;;;;;;3.17;2.15;;;;;;;12.94;75.59;102207.72;10440189;28;20148;-89
2023/09/26 19:36:42;;;;;;;4.50;1.98;;;;;;;12.93;75.74;102203.31;10450703;28;20438;-87
2023/09/26 19:41:47;;;;;;;6.60;2.25;;;;;;;12.86;75.77;102213.72;10487652;28;20047;-89
2023/09/26 19:46:56;;;;;;;3.35;1.85;;;;;;;12.83;76.49;102224.41;10469053;28;20041;-85
2023/09/26 19:51:59;;;;;;;3.60;1.90;;;;;;;12.86;76.67;102223.91;10471547;28;20159;-85
2023/09/26 19:57:01;;;;;;;3.78;2.15;;;;;;;12.85;76.67;102222.25;10472168;28;20048;-88
2023/09/26 20:02:04;;;;;;;5.90;1.88;;;;;;;12.83;77.10;102227.97;10499755;28;20368;-87
2023/09/26 20:07:07;;;;;;;6.68;2.25;;;;;;;12.76;76.66;102232.88;10476291;28;20040;-87
2023/09/26 20:12:09;;;;;;;6.13;2.60;;;;;;;12.63;77.92;102236.00;10539405;28;20040;-87
2023/09/26 20:17:11;;;;;;;4.93;2.40;;;;;;;12.68;78.21;102230.59;10504417;28;20507;-86
2023/09/26 20:22:14;;;;;;;2.05;1.52;;;;;;;12.67;78.52;102226.16;10539359;28;20046;-90
2023/09/26 20:27:16;;;;;;;3.90;2.00;;;;;;;12.67;78.37;102228.91;10474930;28;20029;-85
2023/09/26 20:32:18;;;;;;;5.22;2.00;;;;;;;12.68;78.67;102233.34;10527502;28;20051;-85
2023/09/26 20:37:21;;;;;;;3.05;1.77;;;;;;;12.62;78.94;102234.34;10526334;28;20040;-83
2023/09/26 20:42:23;;;;;;;4.80;1.88;;;;;;;12.69;79.04;102235.00;10541492;28;20036;-83
2023/09/26 20:47:25;;;;;;;4.72;2.25;;;;;;;12.57;80.19;102242.53;10519150;28;20040;-82
2023/09/26 20:52:27;;;;;;;5.55;1.90;;;;;;;12.58;79.96;102246.97;10531764;28;20063;-88
2023/09/26 20:57:32;;;;;;;2.95;1.80;;;;;;;12.48;80.96;102246.81;10509248;28;20127;-90
2023/09/26 21:03:38;;;;;;;4.85;1.90;;;;;;;12.42;80.97;102247.84;10496990;28;20036;-87
2023/09/26 21:09:02;;;;;;;3.55;1.80;;;;;;;12.53;81.13;102258.75;10511874;28;20048;-83
2023/09/26 21:14:04;;;;;;;3.60;1.90;;;;;;;12.57;81.08;102259.91;10537586;28;20044;-83
2023/09/26 21:19:06;;;;;;;5.88;1.88;;;;;;;12.59;81.08;102263.22;10539084;28;20514;-84
2023/09/26 21:24:09;;;;;;;2.97;1.77;;;;;;;12.65;81.24;102269.63;10517764;28;20545;-85
2023/09/26 21:29:11;;;;;;;3.83;1.88;;;;;;;12.65;81.14;102275.13;10517068;28;20043;-84
2023/09/26 21:34:14;;;;;;;4.05;2.03;;;;;;;12.68;80.71;102274.66;10524595;28;20047;-84
2023/09/26 21:39:36;;;;;;;2.63;1.40;;;;;;;12.54;80.89;102265.09;10532684;28;20055;-84
2023/09/26 21:44:38;;;;;;;5.80;1.60;;;;;;;12.53;81.33;102277.19;10531316;28;20040;-84
2023/09/26 21:49:41;;;;;;;4.07;1.70;;;;;;;12.45;81.13;102272.94;10491403;28;20058;-85
2023/09/26 21:54:47;;;;;;;2.88;1.80;;;;;;;12.54;81.39;102282.44;10493853;28;20043;-85
2023/09/26 21:59:49;;;;;;;10.60;2.95;;;;;;;12.60;80.88;102283.34;10544697;28;20135;-84
2023/09/26 22:04:51;;;;;;;3.60;1.52;;;;;;;12.72;80.44;102292.31;10521273;28;20040;-85
2023/09/26 22:09:55;;;;;;;3.78;1.60;;;;;;;12.77;80.81;102291.56;10545930;28;20032;-84
2023/09/26 22:14:58;;;;;;;1.98;1.27;;;;;;;12.67;81.49;102297.78;10525929;28;20051;-85
2023/09/26 22:20:00;;;;;;;3.63;1.55;;;;;;;12.77;80.94;102300.66;10511548;28;20488;-83
2023/09/26 22:25:05;;;;;;;3.10;1.63;;;;;;;12.65;81.08;102306.25;10492161;28;20049;-86
2023/09/26 22:30:09;;;;;;;2.55;1.23;;;;;;;12.61;81.55;102296.84;10539439;28;20120;-84
2023/09/26 22:35:11;;;;;;;2.08;1.45;;;;;;;12.71;81.79;102296.16;10510638;28;20037;-85
2023/09/26 22:40:14;;;;;;;2.85;1.50;;;;;;;12.84;80.83;102287.53;10543253;28;20044;-87
2023/09/26 22:45:17;;;;;;;2.85;1.40;;;;;;;12.93;80.14;102291.50;10524261;28;20048;-85
2023/09/26 22:50:20;;;;;;;1.85;1.27;;;;;;;13.02;80.55;102288.28;10538186;28;20041;-85
2023/09/26 22:55:22;;;;;;;3.22;1.50;;;;;;;12.99;79.98;102301.47;10524189;28;20550;-85
2023/09/26 23:00:25;;;;;;;2.53;1.40;;;;;;;12.96;80.00;102292.88;10509159;28;20033;-85
2023/09/26 23:05:28;;;;;;;1.90;1.25;;;;;;;13.08;79.98;102295.53;10515436;28;20056;-85
2023/09/26 23:10:30;;;;;;;1.58;1.35;;;;;;;13.05;79.73;102296.03;10508765;28;20037;-84
2023/09/26 23:15:33;;;;;;;2.92;1.63;;;;;;;13.17;79.99;102305.81;10494243;28;20111;-83
2023/09/26 23:20:40;;;;;;;1.88;1.23;;;;;;;13.08;79.60;102307.38;10541128;28;20234;-86
2023/09/26 23:25:42;;;;;;;3.58;1.08;;;;;;;13.04;80.23;102308.16;10517266;28;20541;-85
2023/09/26 23:30:45;;;;;;;2.92;1.33;;;;;;;12.83;80.97;102302.38;10502123;28;20040;-85
2023/09/26 23:35:49;;;;;;;3.25;1.60;;;;;;;12.69;81.49;102295.59;10531849;28;20032;-86
2023/09/26 23:40:52;;;;;;;2.42;1.40;;;;;;;12.65;82.01;102292.50;10550694;28;20038;-84
2023/09/26 23:46:05;;;;;;;3.35;1.45;;;;;;;12.63;81.94;102288.31;10527006;28;20040;-85
2023/09/26 23:51:46;;;;;;;1.92;1.15;;;;;;;12.57;82.44;102294.88;10448117;28;20051;-86